sensor_id;sensor_type;location;lat;lon;timestamp;temperature;humidity
20483;DHT22;10400;53.198;6.592;2023-04-19T00:01:22;9.20;1.00
20483;DHT22;10400;53.198;6.592;2023-04-19T00:03:49;9.20;1.00
20483;DHT22;10400;53.198;6.592;2023-04-19T00:06:15;9.20;1.00
20483;DHT22;10400;53.198;6.592;2023-04-19T00:08:41;9.20;1.00
20483;DHT22;10400;53.198;6.592;2023-04-19T00:11:07;9.20;1.00
20483;DHT22;10400;53.198;6.592;2023-04-19T00:13:33;9.20;1.00
20483;DHT22;10400;53.198;6.592;2023-04-19T00:15:59;9.10;1.00
20483;DHT22;10400;53.198;6.592;2023-04-19T00:18:25;9.10;1.00
20483;DHT22;10400;53.198;6.592;2023-04-19T00:20:51;9.10;1.00
20483;DHT22;10400;53.198;6.592;2023-04-19T00:23:17;9.10;1.00
20483;DHT22;10400;53.198;6.592;2023-04-19T00:25:44;9.10;1.00
20483;DHT22;10400;53.198;6.592;2023-04-19T00:28:10;9.00;1.00
20483;DHT22;10400;53.198;6.592;2023-04-19T00:30:35;9.00;1.00
20483;DHT22;10400;53.198;6.592;2023-04-19T00:33:01;9.00;1.00
20483;DHT22;10400;53.198;6.592;2023-04-19T00:35:27;9.00;1.00
20483;DHT22;10400;53.198;6.592;2023-04-19T00:37:52;9.00;1.00
20483;DHT22;10400;53.198;6.592;2023-04-19T00:40:18;9.00;1.00
20483;DHT22;10400;53.198;6.592;2023-04-19T00:42:44;8.90;1.00
20483;DHT22;10400;53.198;6.592;2023-04-19T00:45:10;8.90;1.00
20483;DHT22;10400;53.198;6.592;2023-04-19T00:47:36;8.90;1.00
20483;DHT22;10400;53.198;6.592;2023-04-19T00:50:03;8.90;1.00
20483;DHT22;10400;53.198;6.592;2023-04-19T00:52:29;8.90;1.00
20483;DHT22;10400;53.198;6.592;2023-04-19T00:54:57;8.90;1.00
20483;DHT22;10400;53.198;6.592;2023-04-19T00:57:24;8.90;1.00
20483;DHT22;10400;53.198;6.592;2023-04-19T00:59:50;8.80;1.00
20483;DHT22;10400;53.198;6.592;2023-04-19T01:02:16;8.90;1.00
20483;DHT22;10400;53.198;6.592;2023-04-19T01:04:42;8.80;1.00
20483;DHT22;10400;53.198;6.592;2023-04-19T01:07:08;8.80;1.00
20483;DHT22;10400;53.198;6.592;2023-04-19T01:09:34;8.80;2.50
20483;DHT22;10400;53.198;6.592;2023-04-19T01:12:00;8.80;7.20
20483;DHT22;10400;53.198;6.592;2023-04-19T01:14:28;8.80;10.00
20483;DHT22;10400;53.198;6.592;2023-04-19T01:16:56;8.80;10.30
20483;DHT22;10400;53.198;6.592;2023-04-19T01:19:21;8.80;14.40
20483;DHT22;10400;53.198;6.592;2023-04-19T01:21:47;8.80;10.50
20483;DHT22;10400;53.198;6.592;2023-04-19T01:24:13;8.80;8.70
20483;DHT22;10400;53.198;6.592;2023-04-19T01:26:39;8.80;11.00
20483;DHT22;10400;53.198;6.592;2023-04-19T01:29:04;8.80;9.70
20483;DHT22;10400;53.198;6.592;2023-04-19T01:31:30;8.70;10.30
20483;DHT22;10400;53.198;6.592;2023-04-19T01:33:56;8.70;10.20
20483;DHT22;10400;53.198;6.592;2023-04-19T01:36:21;8.70;6.50
20483;DHT22;10400;53.198;6.592;2023-04-19T01:38:47;8.60;1.00
20483;DHT22;10400;53.198;6.592;2023-04-19T01:41:13;8.60;5.40
20483;DHT22;10400;53.198;6.592;2023-04-19T01:43:39;8.50;1.00
20483;DHT22;10400;53.198;6.592;2023-04-19T01:46:05;8.50;1.00
20483;DHT22;10400;53.198;6.592;2023-04-19T01:48:31;8.50;1.00
20483;DHT22;10400;53.198;6.592;2023-04-19T01:50:56;8.50;1.00
20483;DHT22;10400;53.198;6.592;2023-04-19T01:53:22;8.50;1.00
20483;DHT22;10400;53.198;6.592;2023-04-19T01:55:48;8.40;1.00
20483;DHT22;10400;53.198;6.592;2023-04-19T01:58:14;8.50;1.00
20483;DHT22;10400;53.198;6.592;2023-04-19T02:00:40;8.50;1.00
20483;DHT22;10400;53.198;6.592;2023-04-19T02:03:05;8.40;1.00
20483;DHT22;10400;53.198;6.592;2023-04-19T02:05:31;8.40;1.00
20483;DHT22;10400;53.198;6.592;2023-04-19T02:07:57;8.40;1.00
20483;DHT22;10400;53.198;6.592;2023-04-19T02:10:22;8.40;1.00
20483;DHT22;10400;53.198;6.592;2023-04-19T02:12:48;8.40;1.00
20483;DHT22;10400;53.198;6.592;2023-04-19T02:15:14;8.40;1.00
20483;DHT22;10400;53.198;6.592;2023-04-19T02:17:39;8.30;1.00
20483;DHT22;10400;53.198;6.592;2023-04-19T02:20:06;8.30;1.00
20483;DHT22;10400;53.198;6.592;2023-04-19T02:22:35;8.30;1.00
20483;DHT22;10400;53.198;6.592;2023-04-19T02:25:00;8.20;1.00
20483;DHT22;10400;53.198;6.592;2023-04-19T02:27:26;8.20;1.00
20483;DHT22;10400;53.198;6.592;2023-04-19T02:29:52;8.20;1.00
20483;DHT22;10400;53.198;6.592;2023-04-19T02:32:17;8.10;1.00
20483;DHT22;10400;53.198;6.592;2023-04-19T02:34:43;8.10;1.00
20483;DHT22;10400;53.198;6.592;2023-04-19T02:37:09;8.10;1.00
20483;DHT22;10400;53.198;6.592;2023-04-19T02:39:35;8.00;1.00
20483;DHT22;10400;53.198;6.592;2023-04-19T02:42:00;8.00;1.00
20483;DHT22;10400;53.198;6.592;2023-04-19T02:44:26;8.00;1.00
20483;DHT22;10400;53.198;6.592;2023-04-19T02:46:52;7.90;1.00
20483;DHT22;10400;53.198;6.592;2023-04-19T02:49:19;7.90;1.00
20483;DHT22;10400;53.198;6.592;2023-04-19T02:51:45;7.90;1.00
20483;DHT22;10400;53.198;6.592;2023-04-19T02:54:11;7.90;1.00
20483;DHT22;10400;53.198;6.592;2023-04-19T02:56:38;7.90;1.00
20483;DHT22;10400;53.198;6.592;2023-04-19T02:59:04;7.80;1.00
20483;DHT22;10400;53.198;6.592;2023-04-19T03:01:30;7.80;1.00
20483;DHT22;10400;53.198;6.592;2023-04-19T03:03:56;7.80;1.00
20483;DHT22;10400;53.198;6.592;2023-04-19T03:06:22;7.80;1.00
20483;DHT22;10400;53.198;6.592;2023-04-19T03:08:48;7.80;1.00
20483;DHT22;10400;53.198;6.592;2023-04-19T03:11:15;7.80;1.00
20483;DHT22;10400;53.198;6.592;2023-04-19T03:13:41;7.70;1.00
20483;DHT22;10400;53.198;6.592;2023-04-19T03:16:07;7.70;99.90
20483;DHT22;10400;53.198;6.592;2023-04-19T03:18:33;7.70;99.90
20483;DHT22;10400;53.198;6.592;2023-04-19T03:20:59;7.60;1.00
20483;DHT22;10400;53.198;6.592;2023-04-19T03:23:25;7.60;99.90
20483;DHT22;10400;53.198;6.592;2023-04-19T03:25:54;7.60;99.90
20483;DHT22;10400;53.198;6.592;2023-04-19T03:28:20;7.50;99.90
20483;DHT22;10400;53.198;6.592;2023-04-19T03:30:46;7.50;99.90
20483;DHT22;10400;53.198;6.592;2023-04-19T03:33:11;7.50;99.90
20483;DHT22;10400;53.198;6.592;2023-04-19T03:35:37;7.50;99.90
20483;DHT22;10400;53.198;6.592;2023-04-19T03:38:03;7.50;99.90
20483;DHT22;10400;53.198;6.592;2023-04-19T03:40:31;7.40;99.90
20483;DHT22;10400;53.198;6.592;2023-04-19T03:42:57;7.40;99.90
20483;DHT22;10400;53.198;6.592;2023-04-19T03:45:23;7.40;99.90
20483;DHT22;10400;53.198;6.592;2023-04-19T03:47:48;7.40;99.90
20483;DHT22;10400;53.198;6.592;2023-04-19T03:50:14;7.30;99.90
20483;DHT22;10400;53.198;6.592;2023-04-19T03:52:40;7.30;99.90
20483;DHT22;10400;53.198;6.592;2023-04-19T03:55:06;7.30;1.00
20483;DHT22;10400;53.198;6.592;2023-04-19T03:57:32;7.20;1.00
20483;DHT22;10400;53.198;6.592;2023-04-19T03:59:57;7.20;99.90
20483;DHT22;10400;53.198;6.592;2023-04-19T04:02:24;7.20;99.90
20483;DHT22;10400;53.198;6.592;2023-04-19T04:04:53;7.10;99.90
20483;DHT22;10400;53.198;6.592;2023-04-19T04:07:19;7.10;99.90
20483;DHT22;10400;53.198;6.592;2023-04-19T04:09:46;7.10;99.90
20483;DHT22;10400;53.198;6.592;2023-04-19T04:12:12;7.10;99.90
20483;DHT22;10400;53.198;6.592;2023-04-19T04:14:38;7.10;99.90
20483;DHT22;10400;53.198;6.592;2023-04-19T04:17:04;7.10;99.90
20483;DHT22;10400;53.198;6.592;2023-04-19T04:19:29;7.00;99.90
20483;DHT22;10400;53.198;6.592;2023-04-19T04:21:55;7.00;99.90
20483;DHT22;10400;53.198;6.592;2023-04-19T04:24:20;7.00;99.90
20483;DHT22;10400;53.198;6.592;2023-04-19T04:26:46;7.00;99.90
20483;DHT22;10400;53.198;6.592;2023-04-19T04:29:14;7.10;99.90
20483;DHT22;10400;53.198;6.592;2023-04-19T04:31:41;7.00;99.90
20483;DHT22;10400;53.198;6.592;2023-04-19T04:34:06;7.00;99.90
20483;DHT22;10400;53.198;6.592;2023-04-19T04:36:33;7.00;99.90
20483;DHT22;10400;53.198;6.592;2023-04-19T04:39:01;7.10;99.90
20483;DHT22;10400;53.198;6.592;2023-04-19T04:41:26;7.00;39.70
20483;DHT22;10400;53.198;6.592;2023-04-19T04:43:58;7.00;11.50
20483;DHT22;10400;53.198;6.592;2023-04-19T04:46:25;7.00;1.00
20483;DHT22;10400;53.198;6.592;2023-04-19T04:48:52;7.00;31.20
20483;DHT22;10400;53.198;6.592;2023-04-19T04:51:17;7.00;1.00
20483;DHT22;10400;53.198;6.592;2023-04-19T04:53:43;7.00;1.00
20483;DHT22;10400;53.198;6.592;2023-04-19T04:56:09;7.00;1.00
20483;DHT22;10400;53.198;6.592;2023-04-19T04:58:34;7.00;1.00
20483;DHT22;10400;53.198;6.592;2023-04-19T05:01:00;7.00;1.00
20483;DHT22;10400;53.198;6.592;2023-04-19T05:03:25;7.10;1.00
20483;DHT22;10400;53.198;6.592;2023-04-19T05:05:51;7.10;1.00
20483;DHT22;10400;53.198;6.592;2023-04-19T05:08:17;7.10;1.00
20483;DHT22;10400;53.198;6.592;2023-04-19T05:10:43;7.20;1.00
20483;DHT22;10400;53.198;6.592;2023-04-19T05:13:08;7.20;1.00
20483;DHT22;10400;53.198;6.592;2023-04-19T05:15:34;7.30;99.90
20483;DHT22;10400;53.198;6.592;2023-04-19T05:18:00;7.30;99.90
20483;DHT22;10400;53.198;6.592;2023-04-19T05:20:25;7.30;65.50
20483;DHT22;10400;53.198;6.592;2023-04-19T05:22:56;7.40;99.90
20483;DHT22;10400;53.198;6.592;2023-04-19T05:25:22;7.40;99.90
20483;DHT22;10400;53.198;6.592;2023-04-19T05:27:48;7.50;1.00
20483;DHT22;10400;53.198;6.592;2023-04-19T05:30:14;7.50;99.90
20483;DHT22;10400;53.198;6.592;2023-04-19T05:32:39;7.50;1.00
20483;DHT22;10400;53.198;6.592;2023-04-19T05:35:05;7.50;99.90
20483;DHT22;10400;53.198;6.592;2023-04-19T05:37:31;7.60;1.00
20483;DHT22;10400;53.198;6.592;2023-04-19T05:39:57;7.60;93.40
20483;DHT22;10400;53.198;6.592;2023-04-19T05:42:22;7.60;99.90
20483;DHT22;10400;53.198;6.592;2023-04-19T05:44:48;7.60;53.80
20483;DHT22;10400;53.198;6.592;2023-04-19T05:47:14;7.70;94.90
20483;DHT22;10400;53.198;6.592;2023-04-19T05:49:40;7.70;1.00
20483;DHT22;10400;53.198;6.592;2023-04-19T05:52:05;7.80;99.90
20483;DHT22;10400;53.198;6.592;2023-04-19T05:54:31;7.80;1.00
20483;DHT22;10400;53.198;6.592;2023-04-19T05:57:03;7.80;1.00
20483;DHT22;10400;53.198;6.592;2023-04-19T05:59:28;7.90;91.00
20483;DHT22;10400;53.198;6.592;2023-04-19T06:01:54;7.90;99.90
20483;DHT22;10400;53.198;6.592;2023-04-19T06:04:20;8.00;1.00
20483;DHT22;10400;53.198;6.592;2023-04-19T06:06:46;8.00;1.00
20483;DHT22;10400;53.198;6.592;2023-04-19T06:09:12;8.10;1.00
20483;DHT22;10400;53.198;6.592;2023-04-19T06:11:39;8.10;1.00
20483;DHT22;10400;53.198;6.592;2023-04-19T06:14:04;8.20;99.90
20483;DHT22;10400;53.198;6.592;2023-04-19T06:16:30;8.20;99.90
20483;DHT22;10400;53.198;6.592;2023-04-19T06:18:56;8.30;1.00
20483;DHT22;10400;53.198;6.592;2023-04-19T06:21:21;8.40;1.00
20483;DHT22;10400;53.198;6.592;2023-04-19T06:23:47;8.40;1.00
20483;DHT22;10400;53.198;6.592;2023-04-19T06:26:13;8.40;59.60
20483;DHT22;10400;53.198;6.592;2023-04-19T06:28:38;8.40;1.00
20483;DHT22;10400;53.198;6.592;2023-04-19T06:31:04;8.40;99.90
20483;DHT22;10400;53.198;6.592;2023-04-19T06:33:30;8.40;99.90
20483;DHT22;10400;53.198;6.592;2023-04-19T06:35:56;8.50;1.00
20483;DHT22;10400;53.198;6.592;2023-04-19T06:38:21;8.50;99.90
20483;DHT22;10400;53.198;6.592;2023-04-19T06:40:47;8.60;99.90
20483;DHT22;10400;53.198;6.592;2023-04-19T06:43:13;8.80;1.00
20483;DHT22;10400;53.198;6.592;2023-04-19T06:45:38;8.80;99.90
20483;DHT22;10400;53.198;6.592;2023-04-19T06:48:04;8.80;1.00
20483;DHT22;10400;53.198;6.592;2023-04-19T06:50:30;8.90;1.00
20483;DHT22;10400;53.198;6.592;2023-04-19T06:52:55;9.00;1.00
20483;DHT22;10400;53.198;6.592;2023-04-19T06:55:21;9.00;1.00
20483;DHT22;10400;53.198;6.592;2023-04-19T06:57:47;9.10;99.90
20483;DHT22;10400;53.198;6.592;2023-04-19T07:00:13;9.20;99.90
20483;DHT22;10400;53.198;6.592;2023-04-19T07:02:39;9.40;1.00
20483;DHT22;10400;53.198;6.592;2023-04-19T07:05:05;9.40;1.00
20483;DHT22;10400;53.198;6.592;2023-04-19T07:07:32;9.50;1.00
20483;DHT22;10400;53.198;6.592;2023-04-19T07:09:57;9.60;1.00
20483;DHT22;10400;53.198;6.592;2023-04-19T07:12:23;9.60;1.00
20483;DHT22;10400;53.198;6.592;2023-04-19T07:14:49;9.70;99.90
20483;DHT22;10400;53.198;6.592;2023-04-19T07:17:23;9.70;99.90
20483;DHT22;10400;53.198;6.592;2023-04-19T07:19:49;9.80;99.90
20483;DHT22;10400;53.198;6.592;2023-04-19T07:22:15;9.80;99.90
20483;DHT22;10400;53.198;6.592;2023-04-19T07:24:40;9.80;99.90
20483;DHT22;10400;53.198;6.592;2023-04-19T07:27:07;9.80;99.90
20483;DHT22;10400;53.198;6.592;2023-04-19T07:29:36;9.90;99.90
20483;DHT22;10400;53.198;6.592;2023-04-19T07:32:02;9.90;99.90
20483;DHT22;10400;53.198;6.592;2023-04-19T07:34:29;10.00;1.00
20483;DHT22;10400;53.198;6.592;2023-04-19T07:36:54;10.10;99.90
20483;DHT22;10400;53.198;6.592;2023-04-19T07:39:20;10.10;99.90
20483;DHT22;10400;53.198;6.592;2023-04-19T07:41:46;10.10;33.70
20483;DHT22;10400;53.198;6.592;2023-04-19T07:44:11;10.20;99.90
20483;DHT22;10400;53.198;6.592;2023-04-19T07:46:38;10.30;1.00
20483;DHT22;10400;53.198;6.592;2023-04-19T07:49:03;10.30;1.00
20483;DHT22;10400;53.198;6.592;2023-04-19T07:51:29;10.50;1.00
20483;DHT22;10400;53.198;6.592;2023-04-19T07:53:55;10.50;1.00
20483;DHT22;10400;53.198;6.592;2023-04-19T07:56:21;10.50;1.00
20483;DHT22;10400;53.198;6.592;2023-04-19T07:58:47;10.50;1.00
20483;DHT22;10400;53.198;6.592;2023-04-19T08:01:13;10.60;1.00
20483;DHT22;10400;53.198;6.592;2023-04-19T08:03:38;10.70;1.00
20483;DHT22;10400;53.198;6.592;2023-04-19T08:06:05;10.90;1.00
20483;DHT22;10400;53.198;6.592;2023-04-19T08:08:33;11.00;1.00
20483;DHT22;10400;53.198;6.592;2023-04-19T08:10:59;11.10;1.00
20483;DHT22;10400;53.198;6.592;2023-04-19T08:13:27;11.10;1.00
20483;DHT22;10400;53.198;6.592;2023-04-19T08:15:52;11.20;1.00
20483;DHT22;10400;53.198;6.592;2023-04-19T08:18:18;11.10;1.00
20483;DHT22;10400;53.198;6.592;2023-04-19T08:20:45;11.10;1.00
20483;DHT22;10400;53.198;6.592;2023-04-19T08:23:11;11.00;1.00
20483;DHT22;10400;53.198;6.592;2023-04-19T08:25:37;11.10;1.00
20483;DHT22;10400;53.198;6.592;2023-04-19T08:28:03;11.10;1.00
20483;DHT22;10400;53.198;6.592;2023-04-19T08:30:29;11.20;1.00
20483;DHT22;10400;53.198;6.592;2023-04-19T08:32:55;11.30;1.00
20483;DHT22;10400;53.198;6.592;2023-04-19T08:35:21;11.40;1.00
20483;DHT22;10400;53.198;6.592;2023-04-19T08:37:47;11.50;99.90
20483;DHT22;10400;53.198;6.592;2023-04-19T08:40:14;11.50;1.00
20483;DHT22;10400;53.198;6.592;2023-04-19T08:42:41;11.60;99.90
20483;DHT22;10400;53.198;6.592;2023-04-19T08:45:07;11.70;99.90
20483;DHT22;10400;53.198;6.592;2023-04-19T08:47:36;11.80;99.90
20483;DHT22;10400;53.198;6.592;2023-04-19T08:50:06;11.70;99.90
20483;DHT22;10400;53.198;6.592;2023-04-19T08:52:33;11.70;99.90
20483;DHT22;10400;53.198;6.592;2023-04-19T08:55:07;11.70;99.90
20483;DHT22;10400;53.198;6.592;2023-04-19T08:57:34;11.80;99.90
20483;DHT22;10400;53.198;6.592;2023-04-19T09:00:01;11.90;99.90
20483;DHT22;10400;53.198;6.592;2023-04-19T09:02:52;11.90;99.90
20483;DHT22;10400;53.198;6.592;2023-04-19T09:05:20;12.00;99.90
20483;DHT22;10400;53.198;6.592;2023-04-19T09:07:46;12.00;99.90
20483;DHT22;10400;53.198;6.592;2023-04-19T09:10:15;12.10;99.90
20483;DHT22;10400;53.198;6.592;2023-04-19T09:12:41;12.40;99.90
20483;DHT22;10400;53.198;6.592;2023-04-19T09:15:08;12.50;99.90
20483;DHT22;10400;53.198;6.592;2023-04-19T09:17:35;12.70;99.90
20483;DHT22;10400;53.198;6.592;2023-04-19T09:20:01;12.70;99.90
20483;DHT22;10400;53.198;6.592;2023-04-19T09:22:29;12.70;99.90
20483;DHT22;10400;53.198;6.592;2023-04-19T09:24:54;12.60;99.90
20483;DHT22;10400;53.198;6.592;2023-04-19T09:27:34;12.60;99.90
20483;DHT22;10400;53.198;6.592;2023-04-19T09:30:02;12.60;99.90
20483;DHT22;10400;53.198;6.592;2023-04-19T09:32:28;12.80;99.90
20483;DHT22;10400;53.198;6.592;2023-04-19T09:35:08;12.90;99.90
20483;DHT22;10400;53.198;6.592;2023-04-19T09:37:34;13.00;99.90
20483;DHT22;10400;53.198;6.592;2023-04-19T09:40:06;13.10;99.90
20483;DHT22;10400;53.198;6.592;2023-04-19T09:42:45;13.10;99.90
20483;DHT22;10400;53.198;6.592;2023-04-19T09:45:11;13.20;99.90
20483;DHT22;10400;53.198;6.592;2023-04-19T09:47:37;13.20;99.90
20483;DHT22;10400;53.198;6.592;2023-04-19T09:52:31;13.40;99.90
20483;DHT22;10400;53.198;6.592;2023-04-19T09:55:00;13.40;99.90
20483;DHT22;10400;53.198;6.592;2023-04-19T09:57:26;13.50;99.90
20483;DHT22;10400;53.198;6.592;2023-04-19T09:59:52;13.60;99.90
20483;DHT22;10400;53.198;6.592;2023-04-19T10:02:18;13.60;99.90
20483;DHT22;10400;53.198;6.592;2023-04-19T10:04:45;13.50;99.90
20483;DHT22;10400;53.198;6.592;2023-04-19T10:07:11;13.50;99.90
20483;DHT22;10400;53.198;6.592;2023-04-19T10:09:37;13.40;99.90
20483;DHT22;10400;53.198;6.592;2023-04-19T10:12:04;13.50;99.90
20483;DHT22;10400;53.198;6.592;2023-04-19T10:14:34;13.40;99.90
20483;DHT22;10400;53.198;6.592;2023-04-19T10:17:01;13.50;99.90
20483;DHT22;10400;53.198;6.592;2023-04-19T10:19:27;13.50;99.90
20483;DHT22;10400;53.198;6.592;2023-04-19T10:21:54;13.60;99.90
20483;DHT22;10400;53.198;6.592;2023-04-19T10:24:21;13.70;99.90
20483;DHT22;10400;53.198;6.592;2023-04-19T10:27:12;13.70;99.90
20483;DHT22;10400;53.198;6.592;2023-04-19T10:32:16;13.90;99.90
20483;DHT22;10400;53.198;6.592;2023-04-19T10:34:42;14.00;99.90
20483;DHT22;10400;53.198;6.592;2023-04-19T10:37:09;14.00;99.90
20483;DHT22;10400;53.198;6.592;2023-04-19T10:39:39;14.00;99.90
20483;DHT22;10400;53.198;6.592;2023-04-19T10:42:06;14.10;99.90
20483;DHT22;10400;53.198;6.592;2023-04-19T10:44:31;13.90;99.90
20483;DHT22;10400;53.198;6.592;2023-04-19T10:47:00;13.90;99.90
20483;DHT22;10400;53.198;6.592;2023-04-19T10:49:29;13.70;99.90
20483;DHT22;10400;53.198;6.592;2023-04-19T10:51:55;13.90;99.90
20483;DHT22;10400;53.198;6.592;2023-04-19T10:54:37;14.00;99.90
20483;DHT22;10400;53.198;6.592;2023-04-19T10:57:04;14.30;99.90
20483;DHT22;10400;53.198;6.592;2023-04-19T10:59:35;14.30;99.90
20483;DHT22;10400;53.198;6.592;2023-04-19T11:02:03;14.30;99.90
20483;DHT22;10400;53.198;6.592;2023-04-19T11:07:02;14.20;99.90
20483;DHT22;10400;53.198;6.592;2023-04-19T11:09:30;14.30;99.90
20483;DHT22;10400;53.198;6.592;2023-04-19T11:12:02;14.40;99.90
20483;DHT22;10400;53.198;6.592;2023-04-19T11:14:36;14.30;99.90
20483;DHT22;10400;53.198;6.592;2023-04-19T11:17:22;14.20;99.90
20483;DHT22;10400;53.198;6.592;2023-04-19T11:19:52;14.10;99.90
20483;DHT22;10400;53.198;6.592;2023-04-19T11:22:36;14.10;99.90
20483;DHT22;10400;53.198;6.592;2023-04-19T11:27:34;14.20;99.90
20483;DHT22;10400;53.198;6.592;2023-04-19T11:30:11;14.10;99.90
20483;DHT22;10400;53.198;6.592;2023-04-19T11:32:44;14.00;99.90
20483;DHT22;10400;53.198;6.592;2023-04-19T11:35:10;14.10;99.90
20483;DHT22;10400;53.198;6.592;2023-04-19T11:37:37;14.00;99.90
20483;DHT22;10400;53.198;6.592;2023-04-19T11:40:05;14.10;99.90
20483;DHT22;10400;53.198;6.592;2023-04-19T11:42:31;14.10;99.90
20483;DHT22;10400;53.198;6.592;2023-04-19T11:44:57;14.00;99.90
20483;DHT22;10400;53.198;6.592;2023-04-19T11:47:25;14.00;99.90
20483;DHT22;10400;53.198;6.592;2023-04-19T11:49:51;14.00;99.90
20483;DHT22;10400;53.198;6.592;2023-04-19T11:52:22;14.10;99.90
20483;DHT22;10400;53.198;6.592;2023-04-19T11:54:48;14.30;99.90
20483;DHT22;10400;53.198;6.592;2023-04-19T11:57:13;14.30;99.90
20483;DHT22;10400;53.198;6.592;2023-04-19T12:00:08;14.10;99.90
20483;DHT22;10400;53.198;6.592;2023-04-19T12:02:38;14.30;99.90
20483;DHT22;10400;53.198;6.592;2023-04-19T12:05:12;14.40;99.90
20483;DHT22;10400;53.198;6.592;2023-04-19T12:08:00;14.50;99.90
20483;DHT22;10400;53.198;6.592;2023-04-19T12:10:25;14.50;99.90
20483;DHT22;10400;53.198;6.592;2023-04-19T12:12:51;14.50;99.90
20483;DHT22;10400;53.198;6.592;2023-04-19T12:15:16;14.60;99.90
20483;DHT22;10400;53.198;6.592;2023-04-19T12:17:58;14.50;99.90
20483;DHT22;10400;53.198;6.592;2023-04-19T12:20:44;14.60;99.90
20483;DHT22;10400;53.198;6.592;2023-04-19T12:23:11;14.60;99.90
20483;DHT22;10400;53.198;6.592;2023-04-19T12:25:38;14.60;99.90
20483;DHT22;10400;53.198;6.592;2023-04-19T12:28:05;14.50;99.90
20483;DHT22;10400;53.198;6.592;2023-04-19T12:30:30;14.30;99.90
20483;DHT22;10400;53.198;6.592;2023-04-19T12:32:57;14.40;99.90
20483;DHT22;10400;53.198;6.592;2023-04-19T12:35:26;14.60;99.90
20483;DHT22;10400;53.198;6.592;2023-04-19T12:37:53;14.60;99.90
20483;DHT22;10400;53.198;6.592;2023-04-19T12:40:19;14.60;99.90
20483;DHT22;10400;53.198;6.592;2023-04-19T12:42:45;14.60;99.90
20483;DHT22;10400;53.198;6.592;2023-04-19T12:45:12;14.50;99.90
20483;DHT22;10400;53.198;6.592;2023-04-19T12:47:38;14.60;99.90
20483;DHT22;10400;53.198;6.592;2023-04-19T12:50:05;14.30;99.90
20483;DHT22;10400;53.198;6.592;2023-04-19T12:52:31;14.40;99.90
20483;DHT22;10400;53.198;6.592;2023-04-19T12:54:57;14.40;99.90
20483;DHT22;10400;53.198;6.592;2023-04-19T12:57:23;14.60;99.90
20483;DHT22;10400;53.198;6.592;2023-04-19T12:59:48;14.60;99.90
20483;DHT22;10400;53.198;6.592;2023-04-19T13:02:14;14.60;99.90
20483;DHT22;10400;53.198;6.592;2023-04-19T13:04:40;14.50;99.90
20483;DHT22;10400;53.198;6.592;2023-04-19T13:07:05;14.40;99.90
20483;DHT22;10400;53.198;6.592;2023-04-19T13:09:31;14.50;99.90
20483;DHT22;10400;53.198;6.592;2023-04-19T13:11:57;14.30;99.90
20483;DHT22;10400;53.198;6.592;2023-04-19T13:14:26;14.10;99.90
20483;DHT22;10400;53.198;6.592;2023-04-19T13:16:52;14.20;99.90
20483;DHT22;10400;53.198;6.592;2023-04-19T13:19:18;14.20;99.90
20483;DHT22;10400;53.198;6.592;2023-04-19T13:21:44;14.10;99.90
20483;DHT22;10400;53.198;6.592;2023-04-19T13:24:10;14.10;99.90
20483;DHT22;10400;53.198;6.592;2023-04-19T13:26:36;14.30;99.90
20483;DHT22;10400;53.198;6.592;2023-04-19T13:29:02;14.20;99.90
20483;DHT22;10400;53.198;6.592;2023-04-19T13:31:27;14.30;99.90
20483;DHT22;10400;53.198;6.592;2023-04-19T13:33:54;14.20;99.90
20483;DHT22;10400;53.198;6.592;2023-04-19T13:36:20;14.10;99.90
20483;DHT22;10400;53.198;6.592;2023-04-19T13:38:46;14.30;99.90
20483;DHT22;10400;53.198;6.592;2023-04-19T13:41:12;14.20;99.90
20483;DHT22;10400;53.198;6.592;2023-04-19T13:43:38;14.00;99.90
20483;DHT22;10400;53.198;6.592;2023-04-19T13:46:04;14.00;99.90
20483;DHT22;10400;53.198;6.592;2023-04-19T13:48:30;14.30;99.90
20483;DHT22;10400;53.198;6.592;2023-04-19T13:50:56;14.10;99.90
20483;DHT22;10400;53.198;6.592;2023-04-19T13:53:22;13.80;99.90
20483;DHT22;10400;53.198;6.592;2023-04-19T13:55:48;13.90;99.90
20483;DHT22;10400;53.198;6.592;2023-04-19T13:58:14;13.90;99.90
20483;DHT22;10400;53.198;6.592;2023-04-19T14:00:39;14.00;99.90
20483;DHT22;10400;53.198;6.592;2023-04-19T14:03:05;13.90;99.90
20483;DHT22;10400;53.198;6.592;2023-04-19T14:05:31;13.90;99.90
20483;DHT22;10400;53.198;6.592;2023-04-19T14:07:57;14.00;99.90
20483;DHT22;10400;53.198;6.592;2023-04-19T14:10:22;13.90;99.90
20483;DHT22;10400;53.198;6.592;2023-04-19T14:12:48;14.00;99.90
20483;DHT22;10400;53.198;6.592;2023-04-19T14:15:17;13.80;99.90
20483;DHT22;10400;53.198;6.592;2023-04-19T14:17:42;13.80;99.90
20483;DHT22;10400;53.198;6.592;2023-04-19T14:20:08;13.80;99.90
20483;DHT22;10400;53.198;6.592;2023-04-19T14:22:35;13.70;99.90
20483;DHT22;10400;53.198;6.592;2023-04-19T14:25:01;13.90;99.90
20483;DHT22;10400;53.198;6.592;2023-04-19T14:27:28;13.90;99.90
20483;DHT22;10400;53.198;6.592;2023-04-19T14:29:54;13.90;99.90
20483;DHT22;10400;53.198;6.592;2023-04-19T14:32:20;13.90;99.90
20483;DHT22;10400;53.198;6.592;2023-04-19T14:34:45;13.90;99.90
20483;DHT22;10400;53.198;6.592;2023-04-19T14:37:11;13.90;99.90
20483;DHT22;10400;53.198;6.592;2023-04-19T14:39:36;14.00;99.90
20483;DHT22;10400;53.198;6.592;2023-04-19T14:42:02;14.00;99.90
20483;DHT22;10400;53.198;6.592;2023-04-19T14:44:28;14.00;99.90
20483;DHT22;10400;53.198;6.592;2023-04-19T14:46:53;13.80;99.90
20483;DHT22;10400;53.198;6.592;2023-04-19T14:49:19;13.60;99.90
20483;DHT22;10400;53.198;6.592;2023-04-19T14:51:45;13.50;99.90
20483;DHT22;10400;53.198;6.592;2023-04-19T14:54:11;13.60;99.90
20483;DHT22;10400;53.198;6.592;2023-04-19T14:56:37;13.60;99.90
20483;DHT22;10400;53.198;6.592;2023-04-19T14:59:07;13.70;99.90
20483;DHT22;10400;53.198;6.592;2023-04-19T15:01:33;13.70;99.90
20483;DHT22;10400;53.198;6.592;2023-04-19T15:03:59;13.70;99.90
20483;DHT22;10400;53.198;6.592;2023-04-19T15:06:24;13.70;99.90
20483;DHT22;10400;53.198;6.592;2023-04-19T15:08:50;13.60;99.90
20483;DHT22;10400;53.198;6.592;2023-04-19T15:11:16;13.60;99.90
20483;DHT22;10400;53.198;6.592;2023-04-19T15:13:41;13.70;99.90
20483;DHT22;10400;53.198;6.592;2023-04-19T15:16:07;13.60;99.90
20483;DHT22;10400;53.198;6.592;2023-04-19T15:18:33;13.40;99.90
20483;DHT22;10400;53.198;6.592;2023-04-19T15:21:01;13.40;99.90
20483;DHT22;10400;53.198;6.592;2023-04-19T15:23:26;13.50;99.90
20483;DHT22;10400;53.198;6.592;2023-04-19T15:25:53;13.60;99.90
20483;DHT22;10400;53.198;6.592;2023-04-19T15:28:19;13.60;99.90
20483;DHT22;10400;53.198;6.592;2023-04-19T15:30:53;13.70;99.90
20483;DHT22;10400;53.198;6.592;2023-04-19T15:33:21;13.70;99.90
20483;DHT22;10400;53.198;6.592;2023-04-19T15:35:50;13.60;99.90
20483;DHT22;10400;53.198;6.592;2023-04-19T15:38:16;13.50;99.90
20483;DHT22;10400;53.198;6.592;2023-04-19T15:40:41;13.40;99.90
20483;DHT22;10400;53.198;6.592;2023-04-19T15:43:07;13.50;99.90
20483;DHT22;10400;53.198;6.592;2023-04-19T15:45:33;13.40;99.90
20483;DHT22;10400;53.198;6.592;2023-04-19T15:47:58;13.30;99.90
20483;DHT22;10400;53.198;6.592;2023-04-19T15:50:24;13.40;99.90